sensor_id;sensor_type;location;lat;lon;timestamp;pressure;altitude;pressure_sealevel;temperature;humidity
48872;BME280;36154;51.674;7.824;2023-12-20T00:01:31;100555.56;;;21.20;47.98
48872;BME280;36154;51.674;7.824;2023-12-20T00:03:56;100562.44;;;21.21;47.94
48872;BME280;36154;51.674;7.824;2023-12-20T00:06:21;100550.38;;;21.20;47.92
48872;BME280;36154;51.674;7.824;2023-12-20T00:08:47;100547.78;;;21.20;47.91
48872;BME280;36154;51.674;7.824;2023-12-20T00:11:12;100553.78;;;21.20;47.87
48872;BME280;36154;51.674;7.824;2023-12-20T00:13:38;100548.63;;;21.20;47.89
48872;BME280;36154;51.674;7.824;2023-12-20T00:16:03;100549.47;;;21.21;47.89
48872;BME280;36154;51.674;7.824;2023-12-20T00:18:29;100545.19;;;21.20;47.96
48872;BME280;36154;51.674;7.824;2023-12-20T00:20:54;100544.31;;;21.21;47.88
48872;BME280;36154;51.674;7.824;2023-12-20T00:23:19;100541.72;;;21.21;47.87
48872;BME280;36154;51.674;7.824;2023-12-20T00:25:45;100552.06;;;21.21;47.91
48872;BME280;36154;51.674;7.824;2023-12-20T00:28:10;100552.97;;;21.20;48.14
48872;BME280;36154;51.674;7.824;2023-12-20T00:30:35;100558.13;;;21.20;47.83
48872;BME280;36154;51.674;7.824;2023-12-20T00:33:01;100560.72;;;21.20;47.82
48872;BME280;36154;51.674;7.824;2023-12-20T00:35:27;100562.44;;;21.21;47.87
48872;BME280;36154;51.674;7.824;2023-12-20T00:37:52;100562.44;;;21.21;47.76
48872;BME280;36154;51.674;7.824;2023-12-20T00:40:18;100566.75;;;21.20;47.71
48872;BME280;36154;51.674;7.824;2023-12-20T00:42:43;100562.44;;;21.21;47.76
48872;BME280;36154;51.674;7.824;2023-12-20T00:45:08;100564.13;;;21.22;47.83
48872;BME280;36154;51.674;7.824;2023-12-20T00:47:34;100576.19;;;21.23;47.48
48872;BME280;36154;51.674;7.824;2023-12-20T00:49:59;100567.63;;;21.21;47.95
48872;BME280;36154;51.674;7.824;2023-12-20T00:52:24;100562.44;;;21.21;47.84
48872;BME280;36154;51.674;7.824;2023-12-20T00:54:50;100569.28;;;21.22;47.67
48872;BME280;36154;51.674;7.824;2023-12-20T00:57:16;100563.22;;;21.23;47.81
48872;BME280;36154;51.674;7.824;2023-12-20T00:59:41;100566.69;;;21.22;47.75
48872;BME280;36154;51.674;7.824;2023-12-20T01:02:06;100564.13;;;21.22;47.81
48872;BME280;36154;51.674;7.824;2023-12-20T01:04:32;100574.47;;;21.22;47.81
48872;BME280;36154;51.674;7.824;2023-12-20T01:06:57;100577.97;;;21.21;47.81
48872;BME280;36154;51.674;7.824;2023-12-20T01:09:22;100579.66;;;21.22;47.74
48872;BME280;36154;51.674;7.824;2023-12-20T01:11:54;100572.81;;;21.21;47.74
48872;BME280;36154;51.674;7.824;2023-12-20T01:14:19;100588.34;;;21.21;47.79
48872;BME280;36154;51.674;7.824;2023-12-20T01:16:44;100590.88;;;21.22;47.84
48872;BME280;36154;51.674;7.824;2023-12-20T01:19:10;100582.28;;;21.20;47.85
48872;BME280;36154;51.674;7.824;2023-12-20T01:21:35;100577.97;;;21.21;47.99
48872;BME280;36154;51.674;7.824;2023-12-20T01:24:00;100587.47;;;21.20;47.64
48872;BME280;36154;51.674;7.824;2023-12-20T01:26:26;100588.34;;;21.21;47.74
48872;BME280;36154;51.674;7.824;2023-12-20T01:28:51;100588.34;;;21.21;47.75
48872;BME280;36154;51.674;7.824;2023-12-20T01:31:16;100596.06;;;21.22;47.64
48872;BME280;36154;51.674;7.824;2023-12-20T01:33:41;100591.81;;;21.20;47.88
48872;BME280;36154;51.674;7.824;2023-12-20T01:36:07;100598.72;;;21.21;47.80
48872;BME280;36154;51.674;7.824;2023-12-20T01:38:33;100592.66;;;21.20;47.66
48872;BME280;36154;51.674;7.824;2023-12-20T01:40:58;100601.31;;;21.21;47.71
48872;BME280;36154;51.674;7.824;2023-12-20T01:43:24;100605.56;;;21.22;47.75
48872;BME280;36154;51.674;7.824;2023-12-20T01:45:49;100603.91;;;21.21;47.71
48872;BME280;36154;51.674;7.824;2023-12-20T01:48:16;100603.91;;;21.21;47.76
48872;BME280;36154;51.674;7.824;2023-12-20T01:50:42;100611.66;;;21.21;47.69
48872;BME280;36154;51.674;7.824;2023-12-20T01:53:10;100599.59;;;21.20;47.73
48872;BME280;36154;51.674;7.824;2023-12-20T01:55:39;100596.16;;;21.19;47.67
48872;BME280;36154;51.674;7.824;2023-12-20T01:58:06;100602.19;;;21.20;47.70
48872;BME280;36154;51.674;7.824;2023-12-20T02:00:33;100602.19;;;21.20;47.73
48872;BME280;36154;51.674;7.824;2023-12-20T02:03:01;100597.00;;;21.20;47.69
48872;BME280;36154;51.674;7.824;2023-12-20T02:05:27;100602.19;;;21.20;47.53
48872;BME280;36154;51.674;7.824;2023-12-20T02:07:53;100612.56;;;21.20;47.68
48872;BME280;36154;51.674;7.824;2023-12-20T02:10:18;100599.63;;;21.18;47.63
48872;BME280;36154;51.674;7.824;2023-12-20T02:12:44;100604.78;;;21.20;47.61
48872;BME280;36154;51.674;7.824;2023-12-20T02:15:09;100591.81;;;21.20;47.62
48872;BME280;36154;51.674;7.824;2023-12-20T02:17:35;100596.16;;;21.19;47.59
48872;BME280;36154;51.674;7.824;2023-12-20T02:20:01;100591.81;;;21.20;47.70
48872;BME280;36154;51.674;7.824;2023-12-20T02:22:26;100594.41;;;21.20;47.60
48872;BME280;36154;51.674;7.824;2023-12-20T02:24:52;100586.63;;;21.20;47.63
48872;BME280;36154;51.674;7.824;2023-12-20T02:27:18;100594.41;;;21.20;47.55
48872;BME280;36154;51.674;7.824;2023-12-20T02:29:47;100598.75;;;21.19;47.70
48872;BME280;36154;51.674;7.824;2023-12-20T02:32:12;100586.63;;;21.20;47.67
48872;BME280;36154;51.674;7.824;2023-12-20T02:34:37;100585.81;;;21.19;47.45
48872;BME280;36154;51.674;7.824;2023-12-20T02:37:03;100591.81;;;21.20;47.54
48872;BME280;36154;51.674;7.824;2023-12-20T02:39:28;100581.47;;;21.20;47.63
48872;BME280;36154;51.674;7.824;2023-12-20T02:41:53;100581.47;;;21.20;47.50
48872;BME280;36154;51.674;7.824;2023-12-20T02:44:18;100597.00;;;21.20;47.54
48872;BME280;36154;51.674;7.824;2023-12-20T02:46:44;100594.41;;;21.20;47.52
48872;BME280;36154;51.674;7.824;2023-12-20T02:49:09;100591.00;;;21.19;47.53
48872;BME280;36154;51.674;7.824;2023-12-20T02:51:35;100586.63;;;21.20;47.54
48872;BME280;36154;51.674;7.824;2023-12-20T02:54:03;100580.63;;;21.19;47.58
48872;BME280;36154;51.674;7.824;2023-12-20T02:56:28;100584.97;;;21.19;47.70
48872;BME280;36154;51.674;7.824;2023-12-20T02:58:53;100582.38;;;21.19;47.55
48872;BME280;36154;51.674;7.824;2023-12-20T03:01:18;100584.97;;;21.19;47.47
48872;BME280;36154;51.674;7.824;2023-12-20T03:03:44;100581.50;;;21.18;47.55
48872;BME280;36154;51.674;7.824;2023-12-20T03:06:10;100579.78;;;21.19;47.55
48872;BME280;36154;51.674;7.824;2023-12-20T03:08:35;100579.78;;;21.19;47.52
48872;BME280;36154;51.674;7.824;2023-12-20T03:11:00;100590.16;;;21.19;47.45
48872;BME280;36154;51.674;7.824;2023-12-20T03:13:26;100582.38;;;21.19;47.44
48872;BME280;36154;51.674;7.824;2023-12-20T03:15:51;100584.09;;;21.18;47.58
48872;BME280;36154;51.674;7.824;2023-12-20T03:18:16;100579.78;;;21.19;47.52
48872;BME280;36154;51.674;7.824;2023-12-20T03:20:42;100579.78;;;21.19;47.51
48872;BME280;36154;51.674;7.824;2023-12-20T03:23:07;100588.44;;;21.18;47.54
48872;BME280;36154;51.674;7.824;2023-12-20T03:25:32;100581.50;;;21.18;47.43
48872;BME280;36154;51.674;7.824;2023-12-20T03:27:57;100583.25;;;21.18;47.46
48872;BME280;36154;51.674;7.824;2023-12-20T03:30:23;100583.25;;;21.18;47.48
48872;BME280;36154;51.674;7.824;2023-12-20T03:32:48;100591.03;;;21.18;47.52
48872;BME280;36154;51.674;7.824;2023-12-20T03:35:13;100588.44;;;21.18;47.60
48872;BME280;36154;51.674;7.824;2023-12-20T03:37:38;100582.44;;;21.17;47.44
48872;BME280;36154;51.674;7.824;2023-12-20T03:40:04;100578.06;;;21.18;47.36
48872;BME280;36154;51.674;7.824;2023-12-20T03:42:30;100571.19;;;21.17;47.47
48872;BME280;36154;51.674;7.824;2023-12-20T03:44:55;100580.66;;;21.18;47.46
48872;BME280;36154;51.674;7.824;2023-12-20T03:47:20;100581.56;;;21.17;47.39
48872;BME280;36154;51.674;7.824;2023-12-20T03:49:46;100586.72;;;21.17;47.39
48872;BME280;36154;51.674;7.824;2023-12-20T03:52:11;100582.44;;;21.17;47.41
48872;BME280;36154;51.674;7.824;2023-12-20T03:54:37;100582.44;;;21.17;47.40
48872;BME280;36154;51.674;7.824;2023-12-20T03:57:03;100573.78;;;21.17;47.46
48872;BME280;36154;51.674;7.824;2023-12-20T03:59:29;100573.78;;;21.17;47.37
48872;BME280;36154;51.674;7.824;2023-12-20T04:01:55;100572.91;;;21.18;47.60
48872;BME280;36154;51.674;7.824;2023-12-20T04:04:20;100571.19;;;21.17;47.35
48872;BME280;36154;51.674;7.824;2023-12-20T04:06:45;100577.25;;;21.17;47.32
48872;BME280;36154;51.674;7.824;2023-12-20T04:09:10;100579.84;;;21.17;47.34
48872;BME280;36154;51.674;7.824;2023-12-20T04:11:37;100574.66;;;21.17;47.37
48872;BME280;36154;51.674;7.824;2023-12-20T04:14:02;100573.78;;;21.17;47.05
48872;BME280;36154;51.674;7.824;2023-12-20T04:16:27;100563.41;;;21.17;47.27
48872;BME280;36154;51.674;7.824;2023-12-20T04:18:53;100555.66;;;21.17;47.25
48872;BME280;36154;51.674;7.824;2023-12-20T04:21:18;100553.06;;;21.17;47.46
48872;BME280;36154;51.674;7.824;2023-12-20T04:23:43;100550.47;;;21.17;47.26
48872;BME280;36154;51.674;7.824;2023-12-20T04:26:09;100548.78;;;21.16;47.23
48872;BME280;36154;51.674;7.824;2023-12-20T04:28:34;100558.22;;;21.17;47.31
48872;BME280;36154;51.674;7.824;2023-12-20T04:30:59;100564.34;;;21.16;47.31
48872;BME280;36154;51.674;7.824;2023-12-20T04:33:25;100566.00;;;21.17;47.33
48872;BME280;36154;51.674;7.824;2023-12-20T04:35:50;100572.06;;;21.17;47.31
48872;BME280;36154;51.674;7.824;2023-12-20T04:38:15;100558.22;;;21.17;47.08
48872;BME280;36154;51.674;7.824;2023-12-20T04:40:40;100561.69;;;21.17;47.25
48872;BME280;36154;51.674;7.824;2023-12-20T04:43:07;100561.69;;;21.17;47.30
48872;BME280;36154;51.674;7.824;2023-12-20T04:45:32;100560.81;;;21.17;47.24
48872;BME280;36154;51.674;7.824;2023-12-20T04:47:58;100560.81;;;21.17;47.25
48872;BME280;36154;51.674;7.824;2023-12-20T04:50:23;100560.81;;;21.17;47.38
48872;BME280;36154;51.674;7.824;2023-12-20T04:52:48;100562.53;;;21.18;47.16
48872;BME280;36154;51.674;7.824;2023-12-20T04:55:14;100562.53;;;21.18;47.21
48872;BME280;36154;51.674;7.824;2023-12-20T04:57:39;100554.81;;;21.16;47.16
48872;BME280;36154;51.674;7.824;2023-12-20T05:00:05;100566.00;;;21.17;47.20
48872;BME280;36154;51.674;7.824;2023-12-20T05:02:31;100560.00;;;21.16;47.20
48872;BME280;36154;51.674;7.824;2023-12-20T05:04:56;100566.00;;;21.17;47.17
48872;BME280;36154;51.674;7.824;2023-12-20T05:07:21;100571.19;;;21.17;47.19
48872;BME280;36154;51.674;7.824;2023-12-20T05:09:47;100566.00;;;21.17;47.25
48872;BME280;36154;51.674;7.824;2023-12-20T05:12:12;100567.75;;;21.16;47.18
48872;BME280;36154;51.674;7.824;2023-12-20T05:14:37;100568.59;;;21.17;47.14
48872;BME280;36154;51.674;7.824;2023-12-20T05:17:03;100566.00;;;21.17;47.22
48872;BME280;36154;51.674;7.824;2023-12-20T05:19:28;100575.53;;;21.16;47.07
48872;BME280;36154;51.674;7.824;2023-12-20T05:21:53;100571.19;;;21.17;47.16
48872;BME280;36154;51.674;7.824;2023-12-20T05:24:19;100567.75;;;21.16;47.21
48872;BME280;36154;51.674;7.824;2023-12-20T05:26:44;100566.91;;;21.16;47.20
48872;BME280;36154;51.674;7.824;2023-12-20T05:29:09;100564.34;;;21.16;47.18
48872;BME280;36154;51.674;7.824;2023-12-20T05:31:34;100569.50;;;21.16;47.17
48872;BME280;36154;51.674;7.824;2023-12-20T05:34:00;100572.09;;;21.16;47.31
48872;BME280;36154;51.674;7.824;2023-12-20T05:36:25;100553.97;;;21.16;47.16
48872;BME280;36154;51.674;7.824;2023-12-20T05:38:51;100547.03;;;21.16;47.13
48872;BME280;36154;51.674;7.824;2023-12-20T05:41:16;100547.91;;;21.15;47.14
48872;BME280;36154;51.674;7.824;2023-12-20T05:43:41;100547.09;;;21.15;47.08
48872;BME280;36154;51.674;7.824;2023-12-20T05:46:06;100547.09;;;21.15;47.11
48872;BME280;36154;51.674;7.824;2023-12-20T05:48:32;100543.59;;;21.16;47.07
48872;BME280;36154;51.674;7.824;2023-12-20T05:50:57;100547.09;;;21.15;47.18
48872;BME280;36154;51.674;7.824;2023-12-20T05:53:22;100547.91;;;21.15;47.08
48872;BME280;36154;51.674;7.824;2023-12-20T05:55:48;100559.16;;;21.16;47.03
48872;BME280;36154;51.674;7.824;2023-12-20T05:58:13;100567.81;;;21.15;47.14
48872;BME280;36154;51.674;7.824;2023-12-20T06:00:38;100572.09;;;21.16;47.07
48872;BME280;36154;51.674;7.824;2023-12-20T06:03:04;100578.16;;;21.15;47.05
48872;BME280;36154;51.674;7.824;2023-12-20T06:05:30;100573.00;;;21.15;47.08
48872;BME280;36154;51.674;7.824;2023-12-20T06:07:55;100567.81;;;21.15;47.06
48872;BME280;36154;51.674;7.824;2023-12-20T06:10:26;100564.34;;;21.16;46.95
48872;BME280;36154;51.674;7.824;2023-12-20T06:12:51;100572.09;;;21.16;46.92
48872;BME280;36154;51.674;7.824;2023-12-20T06:15:17;100563.53;;;21.14;47.11
48872;BME280;36154;51.674;7.824;2023-12-20T06:17:42;100562.63;;;21.15;46.78
48872;BME280;36154;51.674;7.824;2023-12-20T06:20:08;100571.25;;;21.15;47.01
48872;BME280;36154;51.674;7.824;2023-12-20T06:22:34;100568.66;;;21.15;47.00
48872;BME280;36154;51.674;7.824;2023-12-20T06:25:00;100560.03;;;21.15;46.86
48872;BME280;36154;51.674;7.824;2023-12-20T06:27:25;100567.81;;;21.15;47.05
48872;BME280;36154;51.674;7.824;2023-12-20T06:29:50;100572.09;;;21.16;47.01
48872;BME280;36154;51.674;7.824;2023-12-20T06:32:16;100562.63;;;21.15;46.90
48872;BME280;36154;51.674;7.824;2023-12-20T06:34:41;100561.75;;;21.16;46.96
48872;BME280;36154;51.674;7.824;2023-12-20T06:37:06;100570.41;;;21.15;47.08
48872;BME280;36154;51.674;7.824;2023-12-20T06:39:31;100548.78;;;21.16;47.01
48872;BME280;36154;51.674;7.824;2023-12-20T06:41:59;100550.50;;;21.15;47.11
48872;BME280;36154;51.674;7.824;2023-12-20T06:44:24;100558.28;;;21.15;47.06
48872;BME280;36154;51.674;7.824;2023-12-20T06:46:49;100547.91;;;21.15;47.09
48872;BME280;36154;51.674;7.824;2023-12-20T06:49:14;100563.47;;;21.15;46.97
48872;BME280;36154;51.674;7.824;2023-12-20T06:51:40;100567.81;;;21.15;47.16
48872;BME280;36154;51.674;7.824;2023-12-20T06:54:05;100561.75;;;21.16;47.07
48872;BME280;36154;51.674;7.824;2023-12-20T06:56:30;100559.16;;;21.16;47.10
48872;BME280;36154;51.674;7.824;2023-12-20T06:58:56;100554.84;;;21.15;47.20
48872;BME280;36154;51.674;7.824;2023-12-20T07:01:21;100564.34;;;21.16;47.12
48872;BME280;36154;51.674;7.824;2023-12-20T07:03:47;100572.09;;;21.16;47.10
48872;BME280;36154;51.674;7.824;2023-12-20T07:06:12;100564.34;;;21.16;47.20
48872;BME280;36154;51.674;7.824;2023-12-20T07:08:40;100568.66;;;21.15;46.98
48872;BME280;36154;51.674;7.824;2023-12-20T07:11:05;100565.22;;;21.15;47.09
48872;BME280;36154;51.674;7.824;2023-12-20T07:13:30;100570.41;;;21.15;47.02
48872;BME280;36154;51.674;7.824;2023-12-20T07:15:56;100566.91;;;21.16;46.98
48872;BME280;36154;51.674;7.824;2023-12-20T07:18:21;100565.16;;;21.16;46.78
48872;BME280;36154;51.674;7.824;2023-12-20T07:20:46;100553.09;;;21.15;47.03
48872;BME280;36154;51.674;7.824;2023-12-20T07:23:12;100556.56;;;21.16;46.93
48872;BME280;36154;51.674;7.824;2023-12-20T07:25:37;100558.28;;;21.15;47.10
48872;BME280;36154;51.674;7.824;2023-12-20T07:28:02;100569.50;;;21.16;46.93
48872;BME280;36154;51.674;7.824;2023-12-20T07:30:28;100567.81;;;21.15;46.97
48872;BME280;36154;51.674;7.824;2023-12-20T07:32:53;100565.22;;;21.15;46.93
48872;BME280;36154;51.674;7.824;2023-12-20T07:35:19;100565.22;;;21.15;46.88
48872;BME280;36154;51.674;7.824;2023-12-20T07:37:44;100573.00;;;21.15;47.00
48872;BME280;36154;51.674;7.824;2023-12-20T07:40:09;100560.03;;;21.15;46.86
48872;BME280;36154;51.674;7.824;2023-12-20T07:42:35;100566.13;;;21.14;46.90
48872;BME280;36154;51.674;7.824;2023-12-20T07:45:00;100572.16;;;21.14;46.97
48872;BME280;36154;51.674;7.824;2023-12-20T07:47:25;100560.94;;;21.14;46.80
48872;BME280;36154;51.674;7.824;2023-12-20T07:49:51;100570.44;;;21.13;46.94
48872;BME280;36154;51.674;7.824;2023-12-20T07:52:17;100568.72;;;21.14;46.87
48872;BME280;36154;51.674;7.824;2023-12-20T07:54:43;100566.13;;;21.14;46.83
48872;BME280;36154;51.674;7.824;2023-12-20T07:57:08;100572.16;;;21.14;46.83
48872;BME280;36154;51.674;7.824;2023-12-20T07:59:35;100566.13;;;21.14;46.81
48872;BME280;36154;51.674;7.824;2023-12-20T08:02:01;100571.31;;;21.14;46.79
48872;BME280;36154;51.674;7.824;2023-12-20T08:04:26;100566.13;;;21.14;46.79
48872;BME280;36154;51.674;7.824;2023-12-20T08:06:51;100572.16;;;21.14;46.84
48872;BME280;36154;51.674;7.824;2023-12-20T08:09:16;100561.78;;;21.14;46.77
48872;BME280;36154;51.674;7.824;2023-12-20T08:11:48;100562.63;;;21.15;46.91
48872;BME280;36154;51.674;7.824;2023-12-20T08:14:14;100550.59;;;21.14;46.87
48872;BME280;36154;51.674;7.824;2023-12-20T08:16:40;100557.44;;;21.15;47.01
48872;BME280;36154;51.674;7.824;2023-12-20T08:19:05;100562.69;;;21.13;47.03
48872;BME280;36154;51.674;7.824;2023-12-20T08:21:30;100555.78;;;21.14;47.33
48872;BME280;36154;51.674;7.824;2023-12-20T08:23:55;100557.44;;;21.15;47.38
48872;BME280;36154;51.674;7.824;2023-12-20T08:26:21;100558.28;;;21.15;47.12
48872;BME280;36154;51.674;7.824;2023-12-20T08:28:50;100552.25;;;21.15;47.06
48872;BME280;36154;51.674;7.824;2023-12-20T08:31:16;100544.50;;;21.15;47.10
48872;BME280;36154;51.674;7.824;2023-12-20T08:33:46;100547.09;;;21.15;47.27
48872;BME280;36154;51.674;7.824;2023-12-20T08:36:12;100559.16;;;21.16;47.21
48872;BME280;36154;51.674;7.824;2023-12-20T08:38:37;100553.97;;;21.16;47.12
48872;BME280;36154;51.674;7.824;2023-12-20T08:41:03;100559.16;;;21.16;47.09
48872;BME280;36154;51.674;7.824;2023-12-20T08:43:34;100559.16;;;21.16;47.26
48872;BME280;36154;51.674;7.824;2023-12-20T08:45:59;100559.16;;;21.16;47.27
48872;BME280;36154;51.674;7.824;2023-12-20T08:48:24;100558.22;;;21.17;47.34
48872;BME280;36154;51.674;7.824;2023-12-20T08:50:50;100557.34;;;21.18;47.11
48872;BME280;36154;51.674;7.824;2023-12-20T08:53:17;100561.69;;;21.17;47.04
48872;BME280;36154;51.674;7.824;2023-12-20T08:55:43;100555.66;;;21.17;47.20
48872;BME280;36154;51.674;7.824;2023-12-20T08:58:08;100552.16;;;21.18;47.13
48872;BME280;36154;51.674;7.824;2023-12-20T09:00:34;100552.16;;;21.18;47.21
48872;BME280;36154;51.674;7.824;2023-12-20T09:03:00;100542.63;;;21.18;47.10
48872;BME280;36154;51.674;7.824;2023-12-20T09:05:25;100537.47;;;21.18;47.24
48872;BME280;36154;51.674;7.824;2023-12-20T09:07:51;100538.31;;;21.19;47.09
48872;BME280;36154;51.674;7.824;2023-12-20T09:10:16;100533.16;;;21.19;47.14
48872;BME280;36154;51.674;7.824;2023-12-20T09:12:46;100538.31;;;21.19;47.01
48872;BME280;36154;51.674;7.824;2023-12-20T09:15:12;100538.31;;;21.19;47.09
48872;BME280;36154;51.674;7.824;2023-12-20T09:17:38;100533.06;;;21.20;47.09
48872;BME280;36154;51.674;7.824;2023-12-20T09:20:04;100517.59;;;21.19;46.99
48872;BME280;36154;51.674;7.824;2023-12-20T09:22:32;100521.91;;;21.18;46.91
48872;BME280;36154;51.674;7.824;2023-12-20T09:24:57;100530.56;;;21.19;46.88
48872;BME280;36154;51.674;7.824;2023-12-20T09:27:22;100520.19;;;21.19;46.91
48872;BME280;36154;51.674;7.824;2023-12-20T09:29:48;100523.63;;;21.19;46.92
48872;BME280;36154;51.674;7.824;2023-12-20T09:32:13;100511.50;;;21.20;46.86
48872;BME280;36154;51.674;7.824;2023-12-20T09:34:39;100512.41;;;21.19;47.01
48872;BME280;36154;51.674;7.824;2023-12-20T09:37:04;100517.59;;;21.19;46.81
48872;BME280;36154;51.674;7.824;2023-12-20T09:39:30;100512.41;;;21.19;46.95
48872;BME280;36154;51.674;7.824;2023-12-20T09:42:02;100502.06;;;21.19;46.95
48872;BME280;36154;51.674;7.824;2023-12-20T09:44:28;100494.28;;;21.19;46.91
48872;BME280;36154;51.674;7.824;2023-12-20T09:46:55;100498.56;;;21.20;47.05
48872;BME280;36154;51.674;7.824;2023-12-20T09:49:21;100498.56;;;21.20;46.93
48872;BME280;36154;51.674;7.824;2023-12-20T09:51:47;100502.84;;;21.21;46.90
48872;BME280;36154;51.674;7.824;2023-12-20T09:54:20;100499.38;;;21.20;47.01
48872;BME280;36154;51.674;7.824;2023-12-20T09:56:46;100500.25;;;21.21;46.92
48872;BME280;36154;51.674;7.824;2023-12-20T09:59:11;100505.44;;;21.21;46.86
48872;BME280;36154;51.674;7.824;2023-12-20T10:01:38;100507.09;;;21.22;46.75
48872;BME280;36154;51.674;7.824;2023-12-20T10:04:09;100513.16;;;21.22;46.75
48872;BME280;36154;51.674;7.824;2023-12-20T10:06:43;100524.34;;;21.23;46.91
48872;BME280;36154;51.674;7.824;2023-12-20T10:09:10;100514.00;;;21.23;46.78
48872;BME280;36154;51.674;7.824;2023-12-20T10:11:36;100508.81;;;21.23;46.70
48872;BME280;36154;51.674;7.824;2023-12-20T10:14:05;100513.16;;;21.22;46.79
48872;BME280;36154;51.674;7.824;2023-12-20T10:16:31;100514.84;;;21.23;46.89
48872;BME280;36154;51.674;7.824;2023-12-20T10:18:58;100500.16;;;21.24;46.68
48872;BME280;36154;51.674;7.824;2023-12-20T10:21:23;100505.34;;;21.24;46.62
48872;BME280;36154;51.674;7.824;2023-12-20T10:23:51;100504.47;;;21.23;46.82
48872;BME280;36154;51.674;7.824;2023-12-20T10:26:20;100503.63;;;21.23;46.70
48872;BME280;36154;51.674;7.824;2023-12-20T10:28:59;100490.69;;;21.23;46.74
48872;BME280;36154;51.674;7.824;2023-12-20T10:31:34;100497.56;;;21.24;46.62
48872;BME280;36154;51.674;7.824;2023-12-20T10:34:02;100485.50;;;21.23;46.68
48872;BME280;36154;51.674;7.824;2023-12-20T10:36:29;100486.34;;;21.23;46.73
48872;BME280;36154;51.674;7.824;2023-12-20T10:38:55;100475.13;;;21.23;46.68
48872;BME280;36154;51.674;7.824;2023-12-20T10:41:30;100487.25;;;21.22;46.69
48872;BME280;36154;51.674;7.824;2023-12-20T10:43:56;100485.50;;;21.23;46.75
48872;BME280;36154;51.674;7.824;2023-12-20T10:46:23;100484.66;;;21.22;46.66
48872;BME280;36154;51.674;7.824;2023-12-20T10:48:52;100486.38;;;21.22;46.56
48872;BME280;36154;51.674;7.824;2023-12-20T10:51:18;100483.78;;;21.22;46.57
48872;BME280;36154;51.674;7.824;2023-12-20T10:53:44;100492.44;;;21.22;46.62
48872;BME280;36154;51.674;7.824;2023-12-20T10:56:15;100484.72;;;21.21;46.62
48872;BME280;36154;51.674;7.824;2023-12-20T10:58:41;100490.69;;;21.23;46.38
48872;BME280;36154;51.674;7.824;2023-12-20T11:01:08;100473.44;;;21.22;46.52
48872;BME280;36154;51.674;7.824;2023-12-20T11:03:35;100477.72;;;21.23;46.62
48872;BME280;36154;51.674;7.824;2023-12-20T11:09:23;100467.34;;;21.23;46.65
48872;BME280;36154;51.674;7.824;2023-12-20T11:12:03;100470.84;;;21.22;46.51
48872;BME280;36154;51.674;7.824;2023-12-20T11:17:11;100472.53;;;21.23;46.43
48872;BME280;36154;51.674;7.824;2023-12-20T11:22:25;100476.88;;;21.22;46.21
48872;BME280;36154;51.674;7.824;2023-12-20T11:24:52;100474.34;;;21.21;46.42
48872;BME280;36154;51.674;7.824;2023-12-20T11:27:18;100476.03;;;21.22;46.40
48872;BME280;36154;51.674;7.824;2023-12-20T11:29:55;100462.28;;;21.20;46.28
48872;BME280;36154;51.674;7.824;2023-12-20T11:34:50;100463.06;;;21.22;46.59
48872;BME280;36154;51.674;7.824;2023-12-20T11:37:16;100469.16;;;21.21;46.61
48872;BME280;36154;51.674;7.824;2023-12-20T11:39:43;100460.47;;;21.22;46.69
48872;BME280;36154;51.674;7.824;2023-12-20T11:42:09;100459.59;;;21.23;46.67
48872;BME280;36154;51.674;7.824;2023-12-20T11:44:36;100462.19;;;21.23;46.63
48872;BME280;36154;51.674;7.824;2023-12-20T11:47:01;100457.00;;;21.23;46.69
48872;BME280;36154;51.674;7.824;2023-12-20T11:49:27;100461.28;;;21.24;46.84
48872;BME280;36154;51.674;7.824;2023-12-20T11:51:54;100452.66;;;21.23;46.85
48872;BME280;36154;51.674;7.824;2023-12-20T11:54:19;100448.34;;;21.24;46.82
48872;BME280;36154;51.674;7.824;2023-12-20T11:56:45;100437.97;;;21.24;46.73
48872;BME280;36154;51.674;7.824;2023-12-20T11:59:11;100441.44;;;21.23;46.81
48872;BME280;36154;51.674;7.824;2023-12-20T12:01:36;100432.78;;;21.24;46.69
48872;BME280;36154;51.674;7.824;2023-12-20T12:04:05;100426.69;;;21.25;46.59
48872;BME280;36154;51.674;7.824;2023-12-20T12:06:30;100423.16;;;21.28;46.64
48872;BME280;36154;51.674;7.824;2023-12-20T12:08:56;100418.84;;;21.28;46.67
48872;BME280;36154;51.674;7.824;2023-12-20T12:11:22;100422.25;;;21.29;46.60
48872;BME280;36154;51.674;7.824;2023-12-20T12:13:48;100406.66;;;21.30;46.65
48872;BME280;36154;51.674;7.824;2023-12-20T12:16:17;100399.81;;;21.29;46.57
48872;BME280;36154;51.674;7.824;2023-12-20T12:18:44;100414.44;;;21.30;46.46
48872;BME280;36154;51.674;7.824;2023-12-20T12:21:09;100408.38;;;21.31;46.38
48872;BME280;36154;51.674;7.824;2023-12-20T12:23:34;100387.63;;;21.31;46.38
48872;BME280;36154;51.674;7.824;2023-12-20T12:26:03;100389.34;;;21.32;46.48
48872;BME280;36154;51.674;7.824;2023-12-20T12:28:29;100386.75;;;21.32;46.37
48872;BME280;36154;51.674;7.824;2023-12-20T12:30:58;100384.16;;;21.32;46.39
48872;BME280;36154;51.674;7.824;2023-12-20T12:33:25;100383.25;;;21.33;46.21
48872;BME280;36154;51.674;7.824;2023-12-20T12:35:50;100365.00;;;21.36;46.22
48872;BME280;36154;51.674;7.824;2023-12-20T12:38:16;100369.09;;;21.42;45.89
48872;BME280;36154;51.674;7.824;2023-12-20T12:40:43;100369.72;;;21.49;46.19
48872;BME280;36154;51.674;7.824;2023-12-20T12:43:09;100380.66;;;21.57;45.84
48872;BME280;36154;51.674;7.824;2023-12-20T12:45:34;100378.06;;;21.57;45.79
48872;BME280;36154;51.674;7.824;2023-12-20T12:47:59;100376.34;;;21.57;46.02
48872;BME280;36154;51.674;7.824;2023-12-20T12:50:25;100371.19;;;21.56;45.66
48872;BME280;36154;51.674;7.824;2023-12-20T12:52:50;100371.31;;;21.53;45.60
48872;BME280;36154;51.674;7.824;2023-12-20T12:55:15;100379.13;;;21.51;45.64